KRSW/RSW METAR and TAF weather

Enter ICAO airport designator
Station Type Date Time Source
KRSW METAR 2020/12/06 00:53 UTC NOAA

KRSW 060053Z 24004KT 10SM SCT027 BKN037 OVC043 21/19 A3004 RMK AO2 SLP168 T02060189


Station Type Date Time Source
KRSW Decoded METAR 2020/12/06 00:53 UTC NOAA

FORT MYERS SW FL INTERNATIONAL AIRPORT , FL, United States (KRSW) 26-32N 081-46W 9M
Dec 05, 2020 - 07:53 PM EST / 2020.12.06 0053 UTC
Wind: from the WSW (240 degrees) at 5 MPH (4 KT):0
Visibility: 10 mile(s):0
Sky conditions: overcast
Temperature: 69.1 F (20.6 C)
Dew Point: 66.0 F (18.9 C)
Relative Humidity: 89%
Pressure (altimeter): 30.04 in. Hg (1017 hPa)
ob: KRSW 060053Z 24004KT 10SM SCT027 BKN037 OVC043 21/19 A3004 RMK AO2 SLP168 T02060189
cycle: 1

Station Type Date Time Source
KRSW TAF 2020/12/05 18:36 UTC NOAA

TAF KRSW 051734Z 0518/0618 31007KT P6SM FEW025 SCT250
FM060200 02004KT P6SM SCT250
FM061400 07006KT P6SM FEW025 BKN250

Example: see airport list